Time;durP1;ratioP1;P1;durP2;ratioP2;P2;SDS_P1;SDS_P2;PMS_P1;PMS_P2;Temp;Humidity;BMP_temperature;BMP_pressure;BME280_temperature;BME280_humidity;BME280_pressure;Samples;Min_cycle;Max_cycle;Signal;HPM_P1;HPM_P2
2022/11/19 00:01:46;;;;;;;26.37;17.73;;;0.10;99.90;;;;;;6124547;23;20180;-65
2022/11/19 00:04:12;;;;;;;27.03;17.60;;;0.10;99.90;;;;;;6126083;23;20214;-65
2022/11/19 00:06:39;;;;;;;26.53;17.50;;;0.10;99.90;;;;;;6125577;23;20179;-64
2022/11/19 00:09:09;;;;;;;22.97;16.00;;;0.10;99.90;;;;;;6125702;23;20200;-66
2022/11/19 00:14:24;;;;;;;25.57;16.67;;;0.20;99.90;;;;;;6125518;23;20171;-65
2022/11/19 00:16:50;;;;;;;26.50;16.87;;;0.20;99.90;;;;;;6125764;23;20183;-65
2022/11/19 00:19:17;;;;;;;25.47;16.63;;;0.30;99.90;;;;;;6125992;23;20175;-66
2022/11/19 00:21:44;;;;;;;24.43;15.80;;;0.30;99.90;;;;;;6125181;23;20179;-65
2022/11/19 00:24:11;;;;;;;26.97;17.37;;;0.30;99.90;;;;;;6125520;23;20180;-65
2022/11/19 00:26:39;;;;;;;26.97;16.47;;;0.40;99.90;;;;;;6125857;23;20180;-65
2022/11/19 00:29:06;;;;;;;24.83;16.73;;;0.30;99.90;;;;;;6125490;23;20200;-65
2022/11/19 00:31:33;;;;;;;23.83;15.97;;;0.40;99.90;;;;;;6124651;23;20239;-64
2022/11/19 00:34:00;;;;;;;24.23;15.30;;;0.40;99.90;;;;;;6125995;23;20635;-66
2022/11/19 00:36:26;;;;;;;23.03;14.93;;;0.40;99.90;;;;;;6125739;23;20186;-66
2022/11/19 00:38:54;;;;;;;25.00;15.57;;;0.40;99.90;;;;;;6125395;23;20254;-65
2022/11/19 00:41:21;;;;;;;22.37;14.30;;;0.40;99.90;;;;;;6125544;23;20184;-65
2022/11/19 00:43:49;;;;;;;22.60;14.90;;;0.40;99.90;;;;;;6125120;23;20570;-65
2022/11/19 00:46:18;;;;;;;23.10;15.40;;;0.50;99.90;;;;;;6125587;23;20572;-64
2022/11/19 00:48:45;;;;;;;23.33;14.53;;;0.40;99.90;;;;;;6125193;23;20285;-64
2022/11/19 00:51:12;;;;;;;22.50;13.83;;;0.50;99.90;;;;;;6125963;23;20638;-66
2022/11/19 00:53:38;;;;;;;21.47;13.67;;;0.50;99.90;;;;;;6125266;23;20186;-65
2022/11/19 00:56:07;;;;;;;18.37;12.83;;;0.50;99.90;;;;;;6124659;23;20164;-65
2022/11/19 00:58:34;;;;;;;19.97;13.70;;;0.60;99.90;;;;;;6125443;23;20176;-65
2022/11/19 01:01:03;;;;;;;23.97;14.70;;;0.50;99.90;;;;;;6125462;23;20179;-65
2022/11/19 01:03:30;;;;;;;19.73;13.63;;;0.50;99.90;;;;;;6125757;23;20179;-65
2022/11/19 01:05:57;;;;;;;19.07;13.00;;;0.50;99.90;;;;;;6125168;23;20180;-65
2022/11/19 01:08:24;;;;;;;19.97;13.23;;;0.50;99.90;;;;;;6125581;23;20207;-65
2022/11/19 01:10:50;;;;;;;19.67;13.37;;;0.50;99.90;;;;;;6125754;23;20503;-64
2022/11/19 01:13:36;;;;;;;18.53;12.93;;;0.60;99.90;;;;;;6125267;23;20179;-63
2022/11/19 01:16:06;;;;;;;17.67;12.07;;;0.60;99.90;;;;;;6124815;23;20168;-65
2022/11/19 01:18:34;;;;;;;18.83;11.97;;;0.60;99.90;;;;;;6125025;23;20630;-65
2022/11/19 01:21:02;;;;;;;17.27;11.10;;;0.70;99.90;;;;;;6125719;23;20179;-65
2022/11/19 01:23:29;;;;;;;13.63;9.73;;;0.70;99.90;;;;;;6125472;23;20186;-65
2022/11/19 01:25:56;;;;;;;16.87;10.93;;;0.70;99.90;;;;;;6124970;23;20186;-64
2022/11/19 01:28:23;;;;;;;15.13;10.43;;;0.70;99.90;;;;;;6124592;23;20204;-65
2022/11/19 01:30:49;;;;;;;14.40;9.87;;;0.70;99.90;;;;;;6125647;23;20180;-66
2022/11/19 01:33:18;;;;;;;15.77;9.73;;;0.70;99.90;;;;;;6124339;23;20179;-65
2022/11/19 01:35:53;;;;;;;12.97;9.40;;;0.70;99.90;;;;;;6124641;23;20186;-64
2022/11/19 01:38:20;;;;;;;13.23;9.00;;;0.80;99.90;;;;;;6125033;23;20163;-65
2022/11/19 01:40:47;;;;;;;11.07;8.07;;;0.80;99.90;;;;;;6125052;23;20262;-66
2022/11/19 01:43:14;;;;;;;11.13;7.93;;;0.80;99.90;;;;;;6124562;23;20179;-64
2022/11/19 01:45:43;;;;;;;10.33;7.70;;;0.80;99.90;;;;;;6124456;23;20473;-65
2022/11/19 01:48:17;;;;;;;12.53;8.60;;;0.80;99.90;;;;;;6125264;23;20179;-64
2022/11/19 01:50:49;;;;;;;13.43;8.90;;;0.90;99.90;;;;;;6125176;23;20170;-64
2022/11/19 01:53:18;;;;;;;14.00;9.40;;;0.90;99.90;;;;;;6124830;23;20175;-65
2022/11/19 01:55:46;;;;;;;10.93;8.03;;;0.90;99.90;;;;;;6123989;23;20204;-66
2022/11/19 01:58:17;;;;;;;11.07;8.20;;;0.90;99.90;;;;;;6125343;23;20189;-65
2022/11/19 02:00:44;;;;;;;11.07;8.50;;;0.90;99.90;;;;;;6125216;23;20163;-65
2022/11/19 02:03:12;;;;;;;11.47;7.77;;;0.90;99.90;;;;;;6124791;23;20179;-65
2022/11/19 02:05:40;;;;;;;13.53;8.87;;;0.90;99.90;;;;;;6124604;23;20185;-64
2022/11/19 02:08:29;;;;;;;11.43;8.47;;;0.90;99.90;;;;;;6125022;23;20555;-65
2022/11/19 02:11:03;;;;;;;12.33;8.63;;;0.90;99.90;;;;;;6124662;23;20200;-64
2022/11/19 02:13:37;;;;;;;10.50;8.10;;;0.90;99.90;;;;;;6125042;23;20249;-66
2022/11/19 02:16:08;;;;;;;9.87;7.50;;;0.90;99.90;;;;;;6124594;23;20163;-65
2022/11/19 02:18:41;;;;;;;10.07;7.50;;;0.90;99.90;;;;;;6124790;23;20278;-65
2022/11/19 02:21:20;;;;;;;12.20;9.07;;;0.90;99.90;;;;;;6125034;23;20170;-65
2022/11/19 02:24:18;;;;;;;12.13;8.87;;;0.90;99.90;;;;;;6125150;23;20484;-65
2022/11/19 02:27:13;;;;;;;12.27;8.53;;;0.90;99.90;;;;;;6125022;23;20164;-65
2022/11/19 02:30:07;;;;;;;11.07;8.57;;;0.90;99.90;;;;;;6121131;23;20669;-64
2022/11/19 02:32:39;;;;;;;11.03;7.80;;;0.90;99.90;;;;;;6104096;23;20193;-65
2022/11/19 02:35:16;;;;;;;12.03;9.07;;;0.90;99.90;;;;;;6125130;23;20171;-64
2022/11/19 02:37:47;;;;;;;10.43;8.07;;;0.90;99.90;;;;;;6125038;23;20168;-65
2022/11/19 02:40:20;;;;;;;12.53;8.90;;;0.90;99.90;;;;;;6126662;23;20166;-64
2022/11/19 02:42:56;;;;;;;9.30;7.30;;;0.90;99.90;;;;;;6125820;23;20164;-64
2022/11/19 02:45:28;;;;;;;10.27;7.37;;;0.90;99.90;;;;;;6126870;23;20177;-65
2022/11/19 02:47:58;;;;;;;10.07;7.00;;;0.90;99.90;;;;;;6126677;23;20164;-65
2022/11/19 02:50:30;;;;;;;9.20;6.80;;;0.90;99.90;;;;;;6126111;23;20187;-65
2022/11/19 02:52:57;;;;;;;9.40;6.30;;;0.90;99.90;;;;;;6126845;23;20174;-65
2022/11/19 02:55:24;;;;;;;8.00;6.23;;;0.90;99.90;;;;;;6125787;23;20211;-64
2022/11/19 02:57:57;;;;;;;8.70;6.57;;;0.90;99.90;;;;;;6126092;23;20680;-65
2022/11/19 03:06:01;;;;;;;8.23;6.50;;;0.90;99.90;;;;;;6126531;23;20163;-66
2022/11/19 03:08:28;;;;;;;7.70;6.10;;;0.90;99.90;;;;;;6126307;23;20170;-65
2022/11/19 03:11:07;;;;;;;8.33;6.40;;;0.90;99.90;;;;;;6126620;23;20749;-66
2022/11/19 03:16:43;;;;;;;8.00;6.10;;;0.90;99.90;;;;;;6126294;23;20265;-66
2022/11/19 03:19:27;;;;;;;8.87;6.67;;;0.90;99.90;;;;;;6126827;23;20159;-67
2022/11/19 03:21:58;;;;;;;11.13;7.53;;;0.80;99.90;;;;;;6126470;23;20206;-65
2022/11/19 03:24:32;;;;;;;10.23;7.00;;;0.90;99.90;;;;;;6126307;23;20491;-65
2022/11/19 03:27:03;;;;;;;9.00;6.50;;;0.90;99.90;;;;;;6125469;23;20170;-65
2022/11/19 03:29:34;;;;;;;11.03;7.13;;;0.90;99.90;;;;;;6126019;23;20188;-65
2022/11/19 03:32:06;;;;;;;9.73;6.77;;;0.80;99.90;;;;;;6126006;23;20171;-65
2022/11/19 03:34:35;;;;;;;9.93;7.10;;;0.90;99.90;;;;;;6126133;23;20168;-65
2022/11/19 03:37:04;;;;;;;8.10;6.43;;;0.90;99.90;;;;;;6126339;23;20179;-64
2022/11/19 03:39:34;;;;;;;9.37;6.47;;;0.80;99.90;;;;;;6126327;23;20555;-65
2022/11/19 03:42:02;;;;;;;10.73;7.30;;;0.80;99.90;;;;;;6125806;23;20259;-65
2022/11/19 03:44:34;;;;;;;8.00;6.10;;;0.80;99.90;;;;;;6126352;23;20194;-63
2022/11/19 03:47:04;;;;;;;9.10;6.37;;;0.80;99.90;;;;;;6126106;23;20164;-64
2022/11/19 03:49:34;;;;;;;10.03;6.67;;;0.80;99.90;;;;;;6125936;23;20187;-65
2022/11/19 03:52:06;;;;;;;8.07;6.20;;;0.80;99.90;;;;;;6126391;23;20502;-65
2022/11/19 03:54:32;;;;;;;8.83;6.50;;;0.80;99.90;;;;;;6125121;23;20207;-64
2022/11/19 03:57:00;;;;;;;9.37;6.87;;;0.80;99.90;;;;;;6125950;23;20185;-65
2022/11/19 03:59:28;;;;;;;10.20;7.23;;;0.80;99.90;;;;;;6126119;23;20175;-65
2022/11/19 04:01:58;;;;;;;9.40;6.57;;;0.80;99.90;;;;;;6126018;23;20219;-66
2022/11/19 04:04:35;;;;;;;9.03;6.23;;;0.90;99.90;;;;;;6125881;23;20186;-66
2022/11/19 04:07:03;;;;;;;10.60;6.67;;;0.80;99.90;;;;;;6125878;23;20171;-66
2022/11/19 04:09:29;;;;;;;8.77;5.97;;;0.80;99.90;;;;;;6125404;23;20222;-64
2022/11/19 04:11:56;;;;;;;7.93;6.00;;;0.80;99.90;;;;;;6125792;23;20510;-67
2022/11/19 04:14:23;;;;;;;8.57;5.93;;;0.80;99.90;;;;;;6125602;23;20487;-65
2022/11/19 04:16:50;;;;;;;9.60;5.90;;;0.80;99.90;;;;;;6126096;23;20179;-65
2022/11/19 04:19:17;;;;;;;8.80;5.60;;;0.80;99.90;;;;;;6125368;23;20175;-65
2022/11/19 04:21:45;;;;;;;11.37;6.80;;;0.80;99.90;;;;;;6125359;23;20187;-64
2022/11/19 04:24:12;;;;;;;10.97;7.60;;;0.80;99.90;;;;;;6124896;23;20507;-64
2022/11/19 04:26:39;;;;;;;12.93;7.67;;;0.80;99.90;;;;;;6125489;23;20186;-66
2022/11/19 04:29:06;;;;;;;12.80;8.30;;;0.80;99.90;;;;;;6125038;23;20206;-65
2022/11/19 04:31:33;;;;;;;13.70;8.53;;;0.80;99.90;;;;;;6125325;23;20206;-65
2022/11/19 04:33:59;;;;;;;14.13;7.83;;;0.80;99.90;;;;;;6125322;23;20187;-66
2022/11/19 04:36:26;;;;;;;10.50;7.43;;;0.90;99.90;;;;;;6125074;23;20262;-67
2022/11/19 04:38:54;;;;;;;11.97;6.90;;;0.80;99.90;;;;;;6125378;23;20183;-65
2022/11/19 04:41:21;;;;;;;8.20;6.37;;;0.90;99.90;;;;;;6125694;23;20677;-66
2022/11/19 04:43:48;;;;;;;8.87;6.60;;;0.90;99.90;;;;;;6125789;23;20484;-67
2022/11/19 04:46:15;;;;;;;6.77;5.63;;;0.90;99.90;;;;;;6125328;23;20183;-67
2022/11/19 04:48:41;;;;;;;6.30;5.40;;;0.90;99.90;;;;;;6125821;23;20500;-66
2022/11/19 04:51:08;;;;;;;5.80;4.80;;;0.90;99.90;;;;;;6124487;23;20203;-64
2022/11/19 04:53:35;;;;;;;6.57;5.23;;;0.90;99.90;;;;;;6125248;23;20199;-67
2022/11/19 04:56:03;;;;;;;5.87;4.80;;;0.90;99.90;;;;;;6125484;23;20247;-65
2022/11/19 04:58:31;;;;;;;6.63;5.43;;;0.90;99.90;;;;;;6125537;23;20179;-64
2022/11/19 05:00:57;;;;;;;6.93;5.70;;;0.90;99.90;;;;;;6124694;23;20627;-65
2022/11/19 05:03:24;;;;;;;8.10;5.70;;;0.90;99.90;;;;;;6125269;23;20179;-65
2022/11/19 05:05:51;;;;;;;6.60;5.30;;;0.90;99.90;;;;;;6124980;23;20458;-65
2022/11/19 05:08:18;;;;;;;6.33;5.37;;;0.90;99.90;;;;;;6125251;23;20503;-66
2022/11/19 05:10:45;;;;;;;6.43;5.60;;;0.90;99.90;;;;;;6124775;23;20205;-65
2022/11/19 05:13:13;;;;;;;6.90;5.60;;;0.90;99.90;;;;;;6125036;23;20450;-65
2022/11/19 05:15:40;;;;;;;7.93;5.63;;;0.90;99.90;;;;;;6124986;23;20183;-64
2022/11/19 05:18:07;;;;;;;6.17;4.63;;;0.90;99.90;;;;;;6125125;23;20509;-65
2022/11/19 05:20:34;;;;;;;7.37;5.80;;;0.80;99.90;;;;;;6124217;23;20263;-64
2022/11/19 05:23:01;;;;;;;8.60;5.67;;;0.80;99.90;;;;;;6124706;23;20183;-66
2022/11/19 05:25:27;;;;;;;7.10;5.43;;;0.80;99.90;;;;;;6125094;23;20635;-65
2022/11/19 05:27:54;;;;;;;8.30;6.40;;;0.80;99.90;;;;;;6123382;23;20467;-66
2022/11/19 05:30:22;;;;;;;7.70;5.93;;;0.90;99.90;;;;;;6124681;23;20199;-66
2022/11/19 05:32:49;;;;;;;8.97;6.27;;;0.90;99.90;;;;;;6124243;23;20282;-64
2022/11/19 05:35:16;;;;;;;13.60;9.23;;;0.90;99.90;;;;;;6124337;23;20195;-65
2022/11/19 05:37:43;;;;;;;8.50;6.40;;;0.90;99.90;;;;;;6124766;23;20184;-65
2022/11/19 05:40:11;;;;;;;9.07;6.67;;;0.90;99.90;;;;;;6124717;23;20176;-66
2022/11/19 05:42:37;;;;;;;7.30;5.50;;;1.00;99.90;;;;;;6124693;23;20183;-66
2022/11/19 05:45:05;;;;;;;7.83;5.93;;;1.00;99.90;;;;;;6124058;23;20648;-65
2022/11/19 05:47:33;;;;;;;8.23;5.83;;;1.00;99.90;;;;;;6124464;23;20186;-65
2022/11/19 05:50:00;;;;;;;6.90;5.70;;;1.00;99.90;;;;;;6124451;23;20199;-66
2022/11/19 05:52:27;;;;;;;7.30;5.57;;;1.00;99.90;;;;;;6123272;23;20231;-67
2022/11/19 05:54:53;;;;;;;7.73;5.90;;;1.00;99.90;;;;;;6124078;23;20707;-66
2022/11/19 05:57:20;;;;;;;8.57;6.60;;;1.10;99.90;;;;;;6124743;23;20180;-65
2022/11/19 05:59:47;;;;;;;8.33;5.90;;;1.10;99.90;;;;;;6123778;23;20217;-67
2022/11/19 06:02:14;;;;;;;8.10;5.90;;;1.10;99.90;;;;;;6124534;23;20184;-66
2022/11/19 06:04:42;;;;;;;8.27;5.87;;;1.10;99.90;;;;;;6124247;23;20179;-66
2022/11/19 06:07:09;;;;;;;8.30;5.80;;;1.10;99.90;;;;;;6124759;23;20184;-65
2022/11/19 06:09:36;;;;;;;7.80;6.00;;;1.10;99.90;;;;;;6124657;23;20518;-67
2022/11/19 06:12:02;;;;;;;7.13;5.50;;;1.20;99.90;;;;;;6123515;23;20186;-66
2022/11/19 06:14:29;;;;;;;10.73;6.43;;;1.20;99.90;;;;;;6124257;23;20185;-65
2022/11/19 06:16:57;;;;;;;10.13;6.80;;;1.20;99.90;;;;;;6123687;23;20194;-64
2022/11/19 06:19:25;;;;;;;11.40;7.73;;;1.20;99.90;;;;;;6123204;23;20299;-66
2022/11/19 06:21:53;;;;;;;9.70;7.10;;;1.20;99.90;;;;;;6123284;23;20181;-65
2022/11/19 06:24:20;;;;;;;9.73;7.07;;;1.30;99.90;;;;;;6123298;23;20194;-65
2022/11/19 06:26:47;;;;;;;8.23;6.27;;;1.30;99.90;;;;;;6123027;23;20692;-65
2022/11/19 06:29:15;;;;;;;8.97;6.90;;;1.30;99.90;;;;;;6124133;23;20267;-66
2022/11/19 06:31:41;;;;;;;10.27;6.90;;;1.30;99.90;;;;;;6122886;23;20692;-66
2022/11/19 06:34:08;;;;;;;9.03;7.27;;;1.30;99.90;;;;;;6122814;23;20180;-67
2022/11/19 06:36:35;;;;;;;8.83;7.10;;;1.30;99.90;;;;;;6123949;23;20186;-66
2022/11/19 06:39:04;;;;;;;9.27;6.90;;;1.40;99.90;;;;;;6122747;23;20194;-65
2022/11/19 06:41:30;;;;;;;7.87;6.50;;;1.40;99.90;;;;;;6123745;23;20183;-65
2022/11/19 06:43:57;;;;;;;8.00;6.00;;;1.40;99.90;;;;;;6122820;23;20180;-66
2022/11/19 06:46:24;;;;;;;8.13;6.20;;;1.40;99.90;;;;;;6123723;23;20846;-66
2022/11/19 06:48:51;;;;;;;10.00;6.43;;;1.40;99.90;;;;;;6123331;23;20186;-66
2022/11/19 06:51:18;;;;;;;14.43;10.80;;;1.50;99.90;;;;;;6123437;23;20199;-66
2022/11/19 06:53:44;;;;;;;9.13;6.33;;;1.50;99.90;;;;;;6123106;23;20230;-66
2022/11/19 06:56:13;;;;;;;9.40;7.30;;;1.50;99.90;;;;;;6123524;23;20239;-66
2022/11/19 06:58:39;;;;;;;9.70;7.17;;;1.50;99.90;;;;;;6122528;23;20186;-66
2022/11/19 07:01:06;;;;;;;8.73;6.70;;;1.50;99.90;;;;;;6122841;23;20184;-65
2022/11/19 07:03:34;;;;;;;8.73;7.00;;;1.50;99.90;;;;;;6123058;23;20180;-65
2022/11/19 07:06:04;;;;;;;9.10;6.97;;;1.60;99.90;;;;;;6123496;23;20238;-68
2022/11/19 07:08:33;;;;;;;10.53;7.67;;;1.50;99.90;;;;;;6123567;23;20657;-67
2022/11/19 07:11:00;;;;;;;9.10;7.13;;;1.60;99.90;;;;;;6123075;23;20685;-67
2022/11/19 07:13:56;;;;;;;12.57;9.60;;;1.50;99.90;;;;;;6122908;23;20211;-65
2022/11/19 07:16:15;;;;;;;10.37;7.27;;;1.50;99.90;;;;;;6122898;23;20183;-66
2022/11/19 07:18:42;;;;;;;11.10;7.60;;;1.50;99.90;;;;;;6123076;23;20203;-67
2022/11/19 07:21:09;;;;;;;11.60;7.70;;;1.50;99.90;;;;;;6123322;23;20186;-66
2022/11/19 07:23:36;;;;;;;11.33;7.53;;;1.40;99.90;;;;;;6122878;23;20637;-68
2022/11/19 07:26:02;;;;;;;11.73;6.77;;;1.40;99.90;;;;;;6124605;23;20189;-67
2022/11/19 07:28:30;;;;;;;8.77;6.77;;;1.40;99.90;;;;;;6124475;23;20183;-65
2022/11/19 07:30:57;;;;;;;9.63;6.80;;;1.50;99.90;;;;;;6125248;23;20203;-67
2022/11/19 07:33:24;;;;;;;8.20;6.33;;;1.50;99.90;;;;;;6125715;23;20184;-64
2022/11/19 07:35:51;;;;;;;11.10;7.30;;;1.50;99.90;;;;;;6126285;23;20179;-65
2022/11/19 07:38:17;;;;;;;10.57;7.17;;;1.60;99.90;;;;;;6126758;23;20183;-67
2022/11/19 07:40:52;;;;;;;8.97;7.07;;;1.60;99.90;;;;;;6125225;23;20179;-66
2022/11/19 07:43:18;;;;;;;12.07;7.77;;;1.60;99.90;;;;;;6125696;23;20179;-67
2022/11/19 07:45:47;;;;;;;11.63;7.57;;;1.60;99.90;;;;;;6125842;23;20262;-66
2022/11/19 07:48:14;;;;;;;11.07;7.77;;;1.70;99.90;;;;;;6126066;23;20188;-66
2022/11/19 07:50:41;;;;;;;18.00;9.30;;;1.70;99.90;;;;;;6124698;23;20231;-67
2022/11/19 07:53:08;;;;;;;12.33;7.73;;;1.70;99.90;;;;;;6125482;23;20179;-67
2022/11/19 07:55:35;;;;;;;11.47;7.90;;;1.70;99.90;;;;;;6125134;23;20207;-66
2022/11/19 07:58:01;;;;;;;10.10;7.30;;;1.70;99.90;;;;;;6125922;23;20211;-67
2022/11/19 08:00:28;;;;;;;12.03;8.20;;;1.80;99.90;;;;;;6125796;23;20420;-66
2022/11/19 08:02:56;;;;;;;7.87;6.47;;;1.80;99.90;;;;;;6125834;23;20218;-67
2022/11/19 08:05:23;;;;;;;9.63;6.63;;;1.80;99.90;;;;;;6125232;23;20179;-66
2022/11/19 08:07:50;;;;;;;10.73;6.67;;;1.70;99.90;;;;;;6125696;23;20180;-66
2022/11/19 08:10:17;;;;;;;11.00;7.73;;;1.70;99.90;;;;;;6125306;23;20199;-65
2022/11/19 08:13:01;;;;;;;10.10;7.57;;;1.70;99.90;;;;;;6125096;23;20179;-66
2022/11/19 08:15:28;;;;;;;11.80;7.77;;;1.70;99.90;;;;;;6125323;23;20171;-67
2022/11/19 08:18:14;;;;;;;10.67;7.93;;;1.70;99.90;;;;;;6125788;23;20329;-65
2022/11/19 08:20:42;;;;;;;10.67;7.83;;;1.70;99.90;;;;;;6125297;23;20175;-66
2022/11/19 08:23:10;;;;;;;11.70;8.50;;;1.70;99.90;;;;;;6125712;23;20180;-66
2022/11/19 08:25:37;;;;;;;10.67;7.83;;;1.60;99.90;;;;;;6124720;23;20183;-67
2022/11/19 08:28:04;;;;;;;9.93;7.43;;;1.60;99.90;;;;;;6125751;23;20503;-65
2022/11/19 08:30:33;;;;;;;11.10;7.97;;;1.50;99.90;;;;;;6124412;23;20214;-67
2022/11/19 08:33:01;;;;;;;19.43;14.37;;;1.40;99.90;;;;;;6124696;23;20186;-68
2022/11/19 08:35:28;;;;;;;10.50;8.20;;;1.40;99.90;;;;;;6124592;23;20180;-67
2022/11/19 08:37:56;;;;;;;10.87;7.87;;;1.30;99.90;;;;;;6125748;23;20694;-65
2022/11/19 08:40:24;;;;;;;9.03;7.37;;;1.30;99.90;;;;;;6125197;23;20176;-66
2022/11/19 08:42:59;;;;;;;11.53;8.47;;;1.40;99.90;;;;;;6125246;23;20179;-67
2022/11/19 08:45:30;;;;;;;10.27;7.57;;;1.40;99.90;;;;;;6125183;23;20516;-66
2022/11/19 08:47:58;;;;;;;11.30;7.90;;;1.30;99.90;;;;;;6125038;23;20219;-67
2022/11/19 08:50:27;;;;;;;9.67;8.00;;;1.40;99.90;;;;;;6125229;23;20522;-66
2022/11/19 08:52:58;;;;;;;10.13;7.63;;;1.40;99.90;;;;;;6124954;23;20551;-68
2022/11/19 08:55:26;;;;;;;10.40;7.27;;;1.50;99.90;;;;;;6124372;23;20302;-66
2022/11/19 08:57:52;;;;;;;9.17;7.03;;;1.50;99.90;;;;;;6125010;23;20189;-67
2022/11/19 09:00:20;;;;;;;10.53;7.83;;;1.40;99.90;;;;;;6124216;23;20270;-65
2022/11/19 09:02:47;;;;;;;11.40;8.10;;;1.40;99.90;;;;;;6125325;23;20179;-65
2022/11/19 09:05:14;;;;;;;10.73;8.07;;;1.40;99.90;;;;;;6125181;23;20270;-67
2022/11/19 09:07:42;;;;;;;12.63;8.93;;;1.50;99.90;;;;;;6124620;23;20187;-68
2022/11/19 09:10:10;;;;;;;11.20;8.20;;;1.50;99.90;;;;;;6124276;23;20187;-66
2022/11/19 09:12:37;;;;;;;12.17;9.17;;;1.50;99.90;;;;;;6124738;23;20650;-66
2022/11/19 09:15:05;;;;;;;12.90;9.10;;;1.50;99.90;;;;;;6125118;23;20652;-67
2022/11/19 09:17:32;;;;;;;18.47;11.03;;;1.40;99.90;;;;;;6124803;23;20187;-67
2022/11/19 09:19:58;;;;;;;12.90;9.40;;;1.50;99.90;;;;;;6124310;23;20186;-66
2022/11/19 09:22:25;;;;;;;13.50;9.83;;;1.40;99.90;;;;;;6124847;23;20195;-66
2022/11/19 09:24:54;;;;;;;12.07;9.33;;;1.40;99.90;;;;;;6124954;23;20264;-68
2022/11/19 09:27:20;;;;;;;13.33;10.23;;;1.40;99.90;;;;;;6123188;23;20180;-67
2022/11/19 09:29:47;;;;;;;13.70;10.47;;;1.50;99.90;;;;;;6124256;23;20200;-68
2022/11/19 09:32:14;;;;;;;14.10;10.40;;;1.50;99.90;;;;;;6124372;23;20203;-68
2022/11/19 09:34:41;;;;;;;13.87;10.03;;;1.50;99.90;;;;;;6125373;23;20230;-67
2022/11/19 09:37:08;;;;;;;13.97;10.43;;;1.50;99.90;;;;;;6124292;23;20179;-68
2022/11/19 09:39:35;;;;;;;13.37;10.17;;;1.50;99.90;;;;;;6122972;23;20603;-68
2022/11/19 09:42:16;;;;;;;14.00;10.57;;;1.50;99.90;;;;;;6124544;23;20175;-68
2022/11/19 09:45:06;;;;;;;13.50;10.10;;;1.50;99.90;;;;;;6124303;23;20167;-67
2022/11/19 09:47:47;;;;;;;12.17;9.93;;;1.60;99.90;;;;;;6105543;23;20184;-68
2022/11/19 09:50:18;;;;;;;13.67;10.47;;;1.60;99.90;;;;;;6124461;23;20562;-67
2022/11/19 09:52:48;;;;;;;13.10;10.10;;;1.50;99.90;;;;;;6124928;23;20480;-67
2022/11/19 09:55:20;;;;;;;12.73;10.43;;;1.50;99.90;;;;;;6123985;23;20213;-67
2022/11/19 09:57:52;;;;;;;13.13;10.20;;;1.50;99.90;;;;;;6124286;23;20167;-68
2022/11/19 10:00:21;;;;;;;12.20;10.10;;;1.40;99.90;;;;;;6124145;23;20170;-68
2022/11/19 10:02:48;;;;;;;14.07;9.93;;;1.40;99.90;;;;;;6124009;23;20190;-66
2022/11/19 10:05:21;;;;;;;15.27;10.57;;;1.50;99.90;;;;;;6123791;23;20646;-68
2022/11/19 10:07:59;;;;;;;14.67;9.67;;;1.40;99.90;;;;;;6123516;23;20462;-66
2022/11/19 10:10:40;;;;;;;15.40;10.67;;;1.30;99.90;;;;;;6124057;23;20167;-66
2022/11/19 10:13:24;;;;;;;14.27;10.33;;;1.30;99.90;;;;;;6124362;23;20246;-67
2022/11/19 10:16:02;;;;;;;14.07;10.20;;;1.30;99.90;;;;;;6124393;23;20206;-68
2022/11/19 10:18:39;;;;;;;15.33;10.87;;;1.30;99.90;;;;;;6124212;23;20233;-68
2022/11/19 10:21:10;;;;;;;14.50;10.80;;;1.30;99.90;;;;;;6123359;23;20484;-67
2022/11/19 10:23:48;;;;;;;14.47;10.43;;;1.40;99.90;;;;;;6121913;23;20205;-69
2022/11/19 10:26:18;;;;;;;13.83;10.50;;;1.50;99.90;;;;;;6124422;23;20174;-69
2022/11/19 10:28:53;;;;;;;12.33;9.70;;;1.50;99.90;;;;;;6124906;23;20179;-69
2022/11/19 10:31:29;;;;;;;13.70;10.43;;;1.50;99.90;;;;;;6124800;23;20488;-69
2022/11/19 10:34:04;;;;;;;14.67;10.60;;;1.50;99.90;;;;;;6124929;23;20205;-69
2022/11/19 10:36:37;;;;;;;14.50;10.50;;;1.40;99.90;;;;;;6124373;23;20243;-71
2022/11/19 10:39:10;;;;;;;14.77;10.90;;;1.40;99.90;;;;;;6124160;23;20168;-68
2022/11/19 10:41:44;;;;;;;13.03;10.40;;;1.40;99.90;;;;;;6124688;23;20164;-67
2022/11/19 10:47:02;;;;;;;14.53;10.73;;;1.50;99.90;;;;;;6124243;23;20180;-69
2022/11/19 10:49:29;;;;;;;14.70;10.80;;;1.50;99.90;;;;;;6124584;23;20687;-68
2022/11/19 10:51:57;;;;;;;13.37;9.80;;;1.50;99.90;;;;;;6124832;23;20661;-71
2022/11/19 10:54:27;;;;;;;11.77;9.57;;;1.50;99.90;;;;;;6124170;23;20285;-68
2022/11/19 10:56:55;;;;;;;13.17;10.10;;;1.50;99.90;;;;;;6125092;23;20168;-70
2022/11/19 10:59:26;;;;;;;15.37;10.50;;;1.40;99.90;;;;;;6124918;23;20491;-69
2022/11/19 11:01:57;;;;;;;13.57;10.57;;;1.30;99.90;;;;;;6126665;23;20160;-71
2022/11/19 11:04:26;;;;;;;14.47;11.50;;;1.20;99.90;;;;;;6126598;23;20176;-68
2022/11/19 11:06:55;;;;;;;15.17;10.83;;;1.20;99.90;;;;;;6126790;23;20186;-67
2022/11/19 11:09:30;;;;;;;14.03;10.80;;;1.30;99.90;;;;;;6126592;23;20179;-68
2022/11/19 11:14:53;;;;;;;14.60;10.47;;;1.20;99.90;;;;;;6126655;23;20166;-68
2022/11/19 11:17:23;;;;;;;13.53;10.87;;;1.20;99.90;;;;;;6126718;23;20164;-68
2022/11/19 11:19:58;;;;;;;13.63;10.60;;;1.20;99.90;;;;;;6126262;23;20179;-68
2022/11/19 11:22:26;;;;;;;15.50;11.53;;;1.20;99.90;;;;;;6127036;23;20175;-68
2022/11/19 11:24:53;;;;;;;16.70;12.23;;;1.20;99.90;;;;;;6126865;23;20195;-67
2022/11/19 11:27:21;;;;;;;22.13;16.03;;;1.20;99.90;;;;;;6126158;23;20179;-69
2022/11/19 11:29:49;;;;;;;16.90;12.43;;;1.10;99.90;;;;;;6126507;23;20183;-68
2022/11/19 11:32:30;;;;;;;14.37;10.93;;;1.10;99.90;;;;;;6125984;23;20278;-68
2022/11/19 11:34:57;;;;;;;12.40;9.97;;;1.20;99.90;;;;;;6126049;23;20210;-67
2022/11/19 11:37:26;;;;;;;13.70;10.70;;;1.20;99.90;;;;;;6126213;23;20187;-68
2022/11/19 11:39:54;;;;;;;14.13;11.17;;;1.20;99.90;;;;;;6126371;23;20179;-68
2022/11/19 11:42:25;;;;;;;15.53;11.17;;;1.20;99.90;;;;;;6126311;23;20210;-68
2022/11/19 11:44:57;;;;;;;14.33;10.83;;;1.20;99.90;;;;;;6126533;23;20175;-68
2022/11/19 11:47:27;;;;;;;11.83;10.03;;;1.20;99.90;;;;;;6126797;23;20170;-68
2022/11/19 11:50:05;;;;;;;12.40;9.33;;;1.20;99.90;;;;;;6126757;23;20198;-68
2022/11/19 11:52:36;;;;;;;11.53;9.47;;;1.20;99.90;;;;;;6126802;23;20630;-69
2022/11/19 11:55:06;;;;;;;12.23;9.40;;;1.10;99.90;;;;;;6126018;23;20210;-69
2022/11/19 11:57:36;;;;;;;11.03;9.17;;;1.10;99.90;;;;;;6126452;23;20206;-69
2022/11/19 12:00:29;;;;;;;12.00;9.40;;;1.10;99.90;;;;;;6126638;23;20262;-68
2022/11/19 12:03:00;;;;;;;11.33;9.40;;;1.10;99.90;;;;;;6126741;23;20176;-68
2022/11/19 12:05:33;;;;;;;11.77;9.23;;;1.10;99.90;;;;;;6126407;23;20170;-69
2022/11/19 12:08:05;;;;;;;11.53;9.50;;;1.00;99.90;;;;;;6125965;23;20170;-69
2022/11/19 12:10:41;;;;;;;12.37;9.50;;;1.00;99.90;;;;;;6126358;23;20164;-70
2022/11/19 12:13:44;;;;;;;13.13;10.13;;;1.00;99.90;;;;;;6126000;23;20191;-69
2022/11/19 12:16:21;;;;;;;13.20;10.57;;;1.10;99.90;;;;;;6126077;23;20163;-69
2022/11/19 12:18:58;;;;;;;14.03;11.20;;;1.10;99.90;;;;;;6126191;23;20164;-67
2022/11/19 12:21:36;;;;;;;13.80;10.90;;;1.10;99.90;;;;;;6126056;23;20194;-68
2022/11/19 12:24:19;;;;;;;13.33;10.33;;;1.10;99.90;;;;;;6126032;23;20163;-68
2022/11/19 12:26:56;;;;;;;15.13;10.70;;;1.00;99.90;;;;;;6126177;23;20552;-69
2022/11/19 12:29:28;;;;;;;14.43;10.70;;;1.10;99.90;;;;;;6125787;23;20164;-69
2022/11/19 12:32:14;;;;;;;13.43;10.43;;;1.10;99.90;;;;;;6125890;23;20191;-68
2022/11/19 12:35:15;;;;;;;14.00;10.40;;;1.10;99.90;;;;;;6126029;23;20788;-68
2022/11/19 12:38:02;;;;;;;13.47;10.87;;;1.10;99.90;;;;;;6119173;23;20559;-69
2022/11/19 12:40:39;;;;;;;13.33;10.20;;;1.00;99.90;;;;;;6125731;23;20168;-69
2022/11/19 12:43:17;;;;;;;14.20;10.40;;;1.10;99.90;;;;;;6126253;23;20159;-70
2022/11/19 12:45:57;;;;;;;13.70;10.50;;;1.10;99.90;;;;;;6126068;23;20170;-68
2022/11/19 12:48:43;;;;;;;13.00;10.10;;;1.10;99.90;;;;;;6125626;23;20164;-69
2022/11/19 12:51:19;;;;;;;13.33;10.17;;;1.10;99.90;;;;;;6125929;23;20171;-68
2022/11/19 12:54:13;;;;;;;13.33;11.10;;;1.10;99.90;;;;;;6126051;23;20246;-69
2022/11/19 12:56:48;;;;;;;13.77;10.83;;;1.10;99.90;;;;;;6125511;23;20178;-68
2022/11/19 12:59:30;;;;;;;12.30;10.20;;;1.20;99.90;;;;;;6125558;23;20170;-68
2022/11/19 13:02:00;;;;;;;14.23;10.70;;;1.10;99.90;;;;;;6125362;23;20159;-68
2022/11/19 13:04:36;;;;;;;16.20;11.27;;;1.10;99.90;;;;;;6125180;23;20219;-70
2022/11/19 13:07:07;;;;;;;19.17;13.90;;;1.10;99.90;;;;;;6125562;23;20613;-68
2022/11/19 13:09:38;;;;;;;14.27;11.60;;;1.10;99.90;;;;;;6125514;23;20203;-69
2022/11/19 13:12:08;;;;;;;16.20;12.23;;;1.10;99.90;;;;;;6125536;23;20194;-70
2022/11/19 13:14:40;;;;;;;15.63;11.50;;;1.10;99.90;;;;;;6125741;23;20163;-69
2022/11/19 13:17:16;;;;;;;19.93;11.37;;;1.10;99.90;;;;;;6125655;23;20546;-68
2022/11/19 13:19:48;;;;;;;12.03;9.60;;;1.10;99.90;;;;;;6125847;23;20497;-68